sensor_id;sensor_type;location;lat;lon;timestamp;P1;durP1;ratioP1;P2;durP2;ratioP2
58196;SDS011;43999;51.660;5.616;2022-12-07T00:01:42;24.50;;;20.13;;
58196;SDS011;43999;51.660;5.616;2022-12-07T00:04:13;23.27;;;19.38;;
58196;SDS011;43999;51.660;5.616;2022-12-07T00:06:45;22.52;;;18.88;;
58196;SDS011;43999;51.660;5.616;2022-12-07T00:09:18;23.88;;;20.77;;
58196;SDS011;43999;51.660;5.616;2022-12-07T00:11:48;22.55;;;20.13;;
58196;SDS011;43999;51.660;5.616;2022-12-07T00:14:18;23.70;;;20.30;;
58196;SDS011;43999;51.660;5.616;2022-12-07T00:16:48;23.83;;;19.88;;
58196;SDS011;43999;51.660;5.616;2022-12-07T00:19:18;22.02;;;18.83;;
58196;SDS011;43999;51.660;5.616;2022-12-07T00:21:45;26.30;;;23.30;;
58196;SDS011;43999;51.660;5.616;2022-12-07T00:24:13;24.13;;;21.15;;
58196;SDS011;43999;51.660;5.616;2022-12-07T00:26:40;27.13;;;21.45;;
58196;SDS011;43999;51.660;5.616;2022-12-07T00:29:14;21.90;;;18.60;;
58196;SDS011;43999;51.660;5.616;2022-12-07T00:31:45;28.48;;;21.80;;
58196;SDS011;43999;51.660;5.616;2022-12-07T00:34:14;26.23;;;23.27;;
58196;SDS011;43999;51.660;5.616;2022-12-07T00:36:46;25.58;;;22.63;;
58196;SDS011;43999;51.660;5.616;2022-12-07T00:39:15;24.02;;;21.52;;
58196;SDS011;43999;51.660;5.616;2022-12-07T00:41:43;26.55;;;23.52;;
58196;SDS011;43999;51.660;5.616;2022-12-07T00:44:10;24.50;;;21.75;;
58196;SDS011;43999;51.660;5.616;2022-12-07T00:46:38;29.42;;;24.52;;
58196;SDS011;43999;51.660;5.616;2022-12-07T00:49:05;24.15;;;21.30;;
58196;SDS011;43999;51.660;5.616;2022-12-07T00:51:32;26.27;;;22.70;;
58196;SDS011;43999;51.660;5.616;2022-12-07T00:53:59;23.83;;;21.45;;
58196;SDS011;43999;51.660;5.616;2022-12-07T00:56:27;27.15;;;23.88;;
58196;SDS011;43999;51.660;5.616;2022-12-07T00:58:59;24.17;;;20.40;;
58196;SDS011;43999;51.660;5.616;2022-12-07T01:01:30;28.27;;;22.80;;
58196;SDS011;43999;51.660;5.616;2022-12-07T01:04:03;30.67;;;22.75;;
58196;SDS011;43999;51.660;5.616;2022-12-07T01:06:32;24.27;;;21.70;;
58196;SDS011;43999;51.660;5.616;2022-12-07T01:08:59;25.23;;;20.75;;
58196;SDS011;43999;51.660;5.616;2022-12-07T01:11:28;29.02;;;25.02;;
58196;SDS011;43999;51.660;5.616;2022-12-07T01:13:57;32.80;;;26.38;;
58196;SDS011;43999;51.660;5.616;2022-12-07T01:16:28;25.02;;;22.20;;
58196;SDS011;43999;51.660;5.616;2022-12-07T01:18:58;28.98;;;24.13;;
58196;SDS011;43999;51.660;5.616;2022-12-07T01:21:31;30.08;;;26.20;;
58196;SDS011;43999;51.660;5.616;2022-12-07T01:24:04;25.38;;;22.10;;
58196;SDS011;43999;51.660;5.616;2022-12-07T01:26:36;30.08;;;23.77;;
58196;SDS011;43999;51.660;5.616;2022-12-07T01:29:03;33.80;;;22.55;;
58196;SDS011;43999;51.660;5.616;2022-12-07T01:31:30;27.77;;;23.17;;
58196;SDS011;43999;51.660;5.616;2022-12-07T01:33:58;27.55;;;24.58;;
58196;SDS011;43999;51.660;5.616;2022-12-07T01:36:29;28.83;;;23.67;;
58196;SDS011;43999;51.660;5.616;2022-12-07T01:39:02;28.33;;;20.67;;
58196;SDS011;43999;51.660;5.616;2022-12-07T01:41:34;27.63;;;22.48;;
58196;SDS011;43999;51.660;5.616;2022-12-07T01:47:01;26.08;;;23.30;;
58196;SDS011;43999;51.660;5.616;2022-12-07T01:49:33;23.95;;;20.92;;
58196;SDS011;43999;51.660;5.616;2022-12-07T01:52:17;22.98;;;20.55;;
58196;SDS011;43999;51.660;5.616;2022-12-07T01:54:57;25.73;;;21.83;;
58196;SDS011;43999;51.660;5.616;2022-12-07T01:57:40;26.85;;;23.45;;
58196;SDS011;43999;51.660;5.616;2022-12-07T02:00:16;26.60;;;23.35;;
58196;SDS011;43999;51.660;5.616;2022-12-07T02:02:58;29.05;;;20.92;;
58196;SDS011;43999;51.660;5.616;2022-12-07T02:05:48;26.75;;;21.77;;
58196;SDS011;43999;51.660;5.616;2022-12-07T02:08:17;24.17;;;21.33;;
58196;SDS011;43999;51.660;5.616;2022-12-07T02:10:46;29.80;;;22.08;;
58196;SDS011;43999;51.660;5.616;2022-12-07T02:13:21;24.73;;;21.05;;
58196;SDS011;43999;51.660;5.616;2022-12-07T02:22:18;27.00;;;21.85;;
58196;SDS011;43999;51.660;5.616;2022-12-07T02:34:39;31.80;;;21.52;;
58196;SDS011;43999;51.660;5.616;2022-12-07T02:37:34;23.42;;;20.98;;
58196;SDS011;43999;51.660;5.616;2022-12-07T02:40:37;30.02;;;18.70;;
58196;SDS011;43999;51.660;5.616;2022-12-07T02:43:32;22.48;;;20.08;;
58196;SDS011;43999;51.660;5.616;2022-12-07T02:46:14;24.63;;;20.10;;
58196;SDS011;43999;51.660;5.616;2022-12-07T02:48:49;36.67;;;20.20;;
58196;SDS011;43999;51.660;5.616;2022-12-07T02:51:19;24.65;;;18.75;;
58196;SDS011;43999;51.660;5.616;2022-12-07T02:53:48;25.45;;;20.95;;
58196;SDS011;43999;51.660;5.616;2022-12-07T02:56:37;28.20;;;19.52;;
58196;SDS011;43999;51.660;5.616;2022-12-07T02:59:24;24.23;;;18.80;;
58196;SDS011;43999;51.660;5.616;2022-12-07T03:02:24;23.13;;;18.58;;
58196;SDS011;43999;51.660;5.616;2022-12-07T03:08:33;22.73;;;19.13;;
58196;SDS011;43999;51.660;5.616;2022-12-07T03:11:33;25.13;;;19.50;;
58196;SDS011;43999;51.660;5.616;2022-12-07T03:14:31;23.42;;;16.73;;
58196;SDS011;43999;51.660;5.616;2022-12-07T03:17:18;18.75;;;16.83;;
58196;SDS011;43999;51.660;5.616;2022-12-07T03:19:56;22.42;;;16.05;;
58196;SDS011;43999;51.660;5.616;2022-12-07T03:22:32;20.58;;;16.85;;
58196;SDS011;43999;51.660;5.616;2022-12-07T03:25:04;20.67;;;15.20;;
58196;SDS011;43999;51.660;5.616;2022-12-07T03:27:42;20.23;;;17.05;;
58196;SDS011;43999;51.660;5.616;2022-12-07T03:30:24;19.45;;;15.35;;
58196;SDS011;43999;51.660;5.616;2022-12-07T03:33:29;20.75;;;15.77;;
58196;SDS011;43999;51.660;5.616;2022-12-07T03:36:25;18.63;;;15.50;;
58196;SDS011;43999;51.660;5.616;2022-12-07T03:42:07;21.20;;;16.27;;
58196;SDS011;43999;51.660;5.616;2022-12-07T03:44:37;16.15;;;14.05;;
58196;SDS011;43999;51.660;5.616;2022-12-07T03:50:10;17.25;;;14.10;;
58196;SDS011;43999;51.660;5.616;2022-12-07T03:55:37;14.73;;;12.93;;
58196;SDS011;43999;51.660;5.616;2022-12-07T03:58:12;17.00;;;13.38;;
58196;SDS011;43999;51.660;5.616;2022-12-07T04:00:44;23.65;;;13.18;;
58196;SDS011;43999;51.660;5.616;2022-12-07T04:03:12;14.88;;;12.23;;
58196;SDS011;43999;51.660;5.616;2022-12-07T04:05:40;17.85;;;12.52;;
58196;SDS011;43999;51.660;5.616;2022-12-07T04:08:08;17.27;;;11.85;;
58196;SDS011;43999;51.660;5.616;2022-12-07T04:10:36;16.77;;;11.48;;
58196;SDS011;43999;51.660;5.616;2022-12-07T04:13:03;15.60;;;11.68;;
58196;SDS011;43999;51.660;5.616;2022-12-07T04:15:30;18.10;;;11.43;;
58196;SDS011;43999;51.660;5.616;2022-12-07T04:17:58;14.80;;;12.20;;
58196;SDS011;43999;51.660;5.616;2022-12-07T04:20:25;15.23;;;11.48;;
58196;SDS011;43999;51.660;5.616;2022-12-07T04:22:53;15.95;;;12.52;;
58196;SDS011;43999;51.660;5.616;2022-12-07T04:25:20;16.52;;;12.18;;
58196;SDS011;43999;51.660;5.616;2022-12-07T04:27:47;16.52;;;11.38;;
58196;SDS011;43999;51.660;5.616;2022-12-07T04:30:14;12.95;;;10.85;;
58196;SDS011;43999;51.660;5.616;2022-12-07T04:32:42;14.70;;;10.85;;
58196;SDS011;43999;51.660;5.616;2022-12-07T04:35:09;18.40;;;10.32;;
58196;SDS011;43999;51.660;5.616;2022-12-07T04:37:36;18.83;;;11.07;;
58196;SDS011;43999;51.660;5.616;2022-12-07T04:40:07;13.40;;;10.70;;
58196;SDS011;43999;51.660;5.616;2022-12-07T04:42:37;13.13;;;9.65;;
58196;SDS011;43999;51.660;5.616;2022-12-07T04:45:05;14.57;;;8.82;;
58196;SDS011;43999;51.660;5.616;2022-12-07T04:47:33;10.68;;;9.57;;
58196;SDS011;43999;51.660;5.616;2022-12-07T04:50:00;12.15;;;10.27;;
58196;SDS011;43999;51.660;5.616;2022-12-07T04:52:28;11.68;;;8.65;;
58196;SDS011;43999;51.660;5.616;2022-12-07T04:54:55;11.85;;;10.63;;
58196;SDS011;43999;51.660;5.616;2022-12-07T04:57:23;12.40;;;9.00;;
58196;SDS011;43999;51.660;5.616;2022-12-07T04:59:50;12.85;;;9.93;;
58196;SDS011;43999;51.660;5.616;2022-12-07T05:02:17;12.05;;;10.05;;
58196;SDS011;43999;51.660;5.616;2022-12-07T05:04:44;10.73;;;8.82;;
58196;SDS011;43999;51.660;5.616;2022-12-07T05:07:12;13.32;;;10.95;;
58196;SDS011;43999;51.660;5.616;2022-12-07T05:09:39;11.95;;;9.85;;
58196;SDS011;43999;51.660;5.616;2022-12-07T05:12:06;14.60;;;10.40;;
58196;SDS011;43999;51.660;5.616;2022-12-07T05:14:33;16.33;;;10.45;;
58196;SDS011;43999;51.660;5.616;2022-12-07T05:17:01;11.25;;;9.80;;
58196;SDS011;43999;51.660;5.616;2022-12-07T05:19:28;13.45;;;10.32;;
58196;SDS011;43999;51.660;5.616;2022-12-07T05:21:55;13.45;;;10.80;;
58196;SDS011;43999;51.660;5.616;2022-12-07T05:24:23;12.50;;;9.45;;
58196;SDS011;43999;51.660;5.616;2022-12-07T05:26:50;15.70;;;10.13;;
58196;SDS011;43999;51.660;5.616;2022-12-07T05:29:17;15.50;;;9.55;;
58196;SDS011;43999;51.660;5.616;2022-12-07T05:31:45;17.13;;;10.90;;
58196;SDS011;43999;51.660;5.616;2022-12-07T05:34:12;12.75;;;10.93;;
58196;SDS011;43999;51.660;5.616;2022-12-07T05:36:40;17.83;;;10.80;;
58196;SDS011;43999;51.660;5.616;2022-12-07T05:39:07;12.85;;;8.65;;
58196;SDS011;43999;51.660;5.616;2022-12-07T05:41:35;11.63;;;9.23;;
58196;SDS011;43999;51.660;5.616;2022-12-07T05:44:21;15.25;;;10.63;;
58196;SDS011;43999;51.660;5.616;2022-12-07T05:46:48;16.65;;;10.02;;
58196;SDS011;43999;51.660;5.616;2022-12-07T05:49:15;18.90;;;9.65;;
58196;SDS011;43999;51.660;5.616;2022-12-07T05:51:42;14.90;;;10.38;;
58196;SDS011;43999;51.660;5.616;2022-12-07T05:54:10;12.82;;;8.90;;
58196;SDS011;43999;51.660;5.616;2022-12-07T05:56:37;13.55;;;9.25;;
58196;SDS011;43999;51.660;5.616;2022-12-07T05:59:04;9.90;;;8.25;;
58196;SDS011;43999;51.660;5.616;2022-12-07T06:02:02;12.75;;;8.57;;
58196;SDS011;43999;51.660;5.616;2022-12-07T06:04:36;14.82;;;9.60;;
58196;SDS011;43999;51.660;5.616;2022-12-07T06:07:13;9.75;;;8.05;;
58196;SDS011;43999;51.660;5.616;2022-12-07T06:09:43;11.85;;;10.00;;
58196;SDS011;43999;51.660;5.616;2022-12-07T06:12:11;10.68;;;9.40;;
58196;SDS011;43999;51.660;5.616;2022-12-07T06:14:58;15.50;;;11.00;;
58196;SDS011;43999;51.660;5.616;2022-12-07T06:17:25;16.00;;;10.98;;
58196;SDS011;43999;51.660;5.616;2022-12-07T06:19:53;20.38;;;10.70;;
58196;SDS011;43999;51.660;5.616;2022-12-07T06:22:26;15.17;;;9.17;;
58196;SDS011;43999;51.660;5.616;2022-12-07T06:24:54;12.02;;;10.13;;
58196;SDS011;43999;51.660;5.616;2022-12-07T06:27:21;17.52;;;10.23;;
58196;SDS011;43999;51.660;5.616;2022-12-07T06:29:48;15.10;;;10.32;;
58196;SDS011;43999;51.660;5.616;2022-12-07T06:32:15;12.65;;;9.77;;
58196;SDS011;43999;51.660;5.616;2022-12-07T06:34:43;14.35;;;10.82;;
58196;SDS011;43999;51.660;5.616;2022-12-07T06:37:10;14.07;;;10.55;;
58196;SDS011;43999;51.660;5.616;2022-12-07T06:39:37;12.98;;;10.65;;
58196;SDS011;43999;51.660;5.616;2022-12-07T06:42:05;12.00;;;9.95;;
58196;SDS011;43999;51.660;5.616;2022-12-07T06:44:32;17.80;;;12.77;;
58196;SDS011;43999;51.660;5.616;2022-12-07T06:46:59;13.85;;;11.10;;
58196;SDS011;43999;51.660;5.616;2022-12-07T06:49:46;14.40;;;11.23;;
58196;SDS011;43999;51.660;5.616;2022-12-07T06:52:13;17.48;;;12.73;;
58196;SDS011;43999;51.660;5.616;2022-12-07T06:54:41;15.90;;;12.02;;
58196;SDS011;43999;51.660;5.616;2022-12-07T06:57:08;15.88;;;13.52;;
58196;SDS011;43999;51.660;5.616;2022-12-07T06:59:35;20.02;;;11.65;;
58196;SDS011;43999;51.660;5.616;2022-12-07T07:02:02;17.90;;;13.25;;
58196;SDS011;43999;51.660;5.616;2022-12-07T07:04:30;18.00;;;13.48;;
58196;SDS011;43999;51.660;5.616;2022-12-07T07:06:57;14.90;;;12.57;;
58196;SDS011;43999;51.660;5.616;2022-12-07T07:09:25;16.60;;;12.13;;
58196;SDS011;43999;51.660;5.616;2022-12-07T07:11:53;15.13;;;12.90;;
58196;SDS011;43999;51.660;5.616;2022-12-07T07:14:21;17.75;;;13.38;;
58196;SDS011;43999;51.660;5.616;2022-12-07T07:16:48;20.92;;;14.15;;
58196;SDS011;43999;51.660;5.616;2022-12-07T07:19:15;17.15;;;13.73;;
58196;SDS011;43999;51.660;5.616;2022-12-07T07:21:42;14.88;;;13.13;;
58196;SDS011;43999;51.660;5.616;2022-12-07T07:24:10;20.27;;;12.05;;
58196;SDS011;43999;51.660;5.616;2022-12-07T07:26:37;18.33;;;14.40;;
58196;SDS011;43999;51.660;5.616;2022-12-07T07:29:04;18.20;;;13.80;;
58196;SDS011;43999;51.660;5.616;2022-12-07T07:31:32;18.58;;;14.60;;
58196;SDS011;43999;51.660;5.616;2022-12-07T07:34:01;18.85;;;12.63;;
58196;SDS011;43999;51.660;5.616;2022-12-07T07:36:29;15.10;;;11.82;;
58196;SDS011;43999;51.660;5.616;2022-12-07T07:38:56;15.00;;;12.35;;
58196;SDS011;43999;51.660;5.616;2022-12-07T07:41:23;16.10;;;12.57;;
58196;SDS011;43999;51.660;5.616;2022-12-07T07:43:50;15.57;;;12.70;;
58196;SDS011;43999;51.660;5.616;2022-12-07T07:46:17;16.17;;;12.25;;
58196;SDS011;43999;51.660;5.616;2022-12-07T07:48:45;17.92;;;12.25;;
58196;SDS011;43999;51.660;5.616;2022-12-07T07:51:12;20.17;;;14.98;;
58196;SDS011;43999;51.660;5.616;2022-12-07T07:53:42;15.07;;;13.20;;
58196;SDS011;43999;51.660;5.616;2022-12-07T07:56:10;16.65;;;14.05;;
58196;SDS011;43999;51.660;5.616;2022-12-07T07:58:37;19.40;;;14.50;;
58196;SDS011;43999;51.660;5.616;2022-12-07T08:01:06;17.02;;;13.70;;
58196;SDS011;43999;51.660;5.616;2022-12-07T08:03:34;16.88;;;13.27;;
58196;SDS011;43999;51.660;5.616;2022-12-07T08:06:02;17.70;;;13.13;;
58196;SDS011;43999;51.660;5.616;2022-12-07T08:08:30;14.13;;;12.45;;
58196;SDS011;43999;51.660;5.616;2022-12-07T08:10:58;20.13;;;14.23;;
58196;SDS011;43999;51.660;5.616;2022-12-07T08:13:27;15.43;;;12.57;;
58196;SDS011;43999;51.660;5.616;2022-12-07T08:15:57;13.68;;;12.00;;
58196;SDS011;43999;51.660;5.616;2022-12-07T08:18:25;16.90;;;14.75;;
58196;SDS011;43999;51.660;5.616;2022-12-07T08:20:52;17.58;;;12.95;;
58196;SDS011;43999;51.660;5.616;2022-12-07T08:23:29;12.65;;;11.02;;
58196;SDS011;43999;51.660;5.616;2022-12-07T08:26:14;15.70;;;12.60;;
58196;SDS011;43999;51.660;5.616;2022-12-07T08:28:43;16.13;;;13.10;;
58196;SDS011;43999;51.660;5.616;2022-12-07T08:31:13;16.15;;;13.70;;
58196;SDS011;43999;51.660;5.616;2022-12-07T08:33:46;15.05;;;12.60;;
58196;SDS011;43999;51.660;5.616;2022-12-07T08:36:15;14.45;;;12.90;;
58196;SDS011;43999;51.660;5.616;2022-12-07T08:38:43;14.48;;;11.93;;
58196;SDS011;43999;51.660;5.616;2022-12-07T08:41:30;13.95;;;12.55;;
58196;SDS011;43999;51.660;5.616;2022-12-07T08:43:58;14.07;;;12.57;;
58196;SDS011;43999;51.660;5.616;2022-12-07T08:46:26;12.90;;;11.52;;
58196;SDS011;43999;51.660;5.616;2022-12-07T08:48:56;14.98;;;10.65;;
58196;SDS011;43999;51.660;5.616;2022-12-07T08:51:37;14.10;;;10.90;;
58196;SDS011;43999;51.660;5.616;2022-12-07T08:54:07;15.27;;;12.02;;
58196;SDS011;43999;51.660;5.616;2022-12-07T08:56:43;15.63;;;10.80;;
58196;SDS011;43999;51.660;5.616;2022-12-07T08:59:17;13.90;;;10.25;;
58196;SDS011;43999;51.660;5.616;2022-12-07T09:01:47;12.55;;;10.18;;
58196;SDS011;43999;51.660;5.616;2022-12-07T09:04:14;12.98;;;10.95;;
58196;SDS011;43999;51.660;5.616;2022-12-07T09:06:42;11.27;;;9.73;;
58196;SDS011;43999;51.660;5.616;2022-12-07T09:09:10;11.13;;;8.98;;
58196;SDS011;43999;51.660;5.616;2022-12-07T09:11:40;12.30;;;10.77;;
58196;SDS011;43999;51.660;5.616;2022-12-07T09:14:07;11.52;;;9.10;;
58196;SDS011;43999;51.660;5.616;2022-12-07T09:16:35;10.68;;;9.25;;
58196;SDS011;43999;51.660;5.616;2022-12-07T09:19:02;11.38;;;8.63;;
58196;SDS011;43999;51.660;5.616;2022-12-07T09:21:31;10.50;;;9.02;;
58196;SDS011;43999;51.660;5.616;2022-12-07T09:23:59;13.02;;;8.77;;
58196;SDS011;43999;51.660;5.616;2022-12-07T09:26:26;11.88;;;9.30;;
58196;SDS011;43999;51.660;5.616;2022-12-07T09:28:53;13.63;;;8.40;;
58196;SDS011;43999;51.660;5.616;2022-12-07T09:31:21;12.60;;;8.18;;
58196;SDS011;43999;51.660;5.616;2022-12-07T09:33:54;13.50;;;7.72;;
58196;SDS011;43999;51.660;5.616;2022-12-07T09:36:27;9.63;;;7.07;;
58196;SDS011;43999;51.660;5.616;2022-12-07T09:38:55;9.73;;;8.30;;
58196;SDS011;43999;51.660;5.616;2022-12-07T09:41:23;10.55;;;6.93;;
58196;SDS011;43999;51.660;5.616;2022-12-07T09:43:55;11.18;;;6.90;;
58196;SDS011;43999;51.660;5.616;2022-12-07T09:46:34;10.18;;;7.18;;
58196;SDS011;43999;51.660;5.616;2022-12-07T09:49:28;15.23;;;7.22;;
58196;SDS011;43999;51.660;5.616;2022-12-07T09:54:38;12.70;;;7.22;;
58196;SDS011;43999;51.660;5.616;2022-12-07T09:57:13;12.80;;;6.70;;
58196;SDS011;43999;51.660;5.616;2022-12-07T09:59:42;10.52;;;6.32;;
58196;SDS011;43999;51.660;5.616;2022-12-07T10:05:06;10.38;;;6.38;;
58196;SDS011;43999;51.660;5.616;2022-12-07T10:07:49;10.57;;;5.68;;
58196;SDS011;43999;51.660;5.616;2022-12-07T10:10:23;9.10;;;7.10;;
58196;SDS011;43999;51.660;5.616;2022-12-07T10:13:23;10.43;;;5.72;;
58196;SDS011;43999;51.660;5.616;2022-12-07T10:16:07;11.30;;;5.57;;
58196;SDS011;43999;51.660;5.616;2022-12-07T10:24:43;4.38;;;3.22;;
58196;SDS011;43999;51.660;5.616;2022-12-07T10:27:21;7.55;;;3.72;;
58196;SDS011;43999;51.660;5.616;2022-12-07T10:29:57;5.10;;;3.30;;
58196;SDS011;43999;51.660;5.616;2022-12-07T10:32:33;11.13;;;5.13;;
58196;SDS011;43999;51.660;5.616;2022-12-07T10:35:18;11.30;;;5.88;;
58196;SDS011;43999;51.660;5.616;2022-12-07T10:37:53;8.02;;;4.20;;
58196;SDS011;43999;51.660;5.616;2022-12-07T10:40:32;13.57;;;4.90;;
58196;SDS011;43999;51.660;5.616;2022-12-07T10:54:42;6.32;;;3.85;;
58196;SDS011;43999;51.660;5.616;2022-12-07T11:01:24;7.88;;;4.45;;
58196;SDS011;43999;51.660;5.616;2022-12-07T11:04:07;6.75;;;3.58;;
58196;SDS011;43999;51.660;5.616;2022-12-07T11:07:12;9.85;;;4.68;;
58196;SDS011;43999;51.660;5.616;2022-12-07T11:10:22;8.45;;;4.35;;
58196;SDS011;43999;51.660;5.616;2022-12-07T11:13:44;10.23;;;5.53;;
58196;SDS011;43999;51.660;5.616;2022-12-07T11:25:45;9.15;;;6.35;;
58196;SDS011;43999;51.660;5.616;2022-12-07T11:38:25;9.35;;;5.88;;
58196;SDS011;43999;51.660;5.616;2022-12-07T11:41:19;7.78;;;4.88;;
58196;SDS011;43999;51.660;5.616;2022-12-07T11:47:38;6.88;;;5.18;;
58196;SDS011;43999;51.660;5.616;2022-12-07T11:50:34;7.45;;;4.72;;
58196;SDS011;43999;51.660;5.616;2022-12-07T11:56:24;6.05;;;4.10;;
58196;SDS011;43999;51.660;5.616;2022-12-07T11:58:57;7.82;;;4.43;;
58196;SDS011;43999;51.660;5.616;2022-12-07T12:01:50;7.50;;;4.88;;
58196;SDS011;43999;51.660;5.616;2022-12-07T12:07:44;5.50;;;4.05;;
58196;SDS011;43999;51.660;5.616;2022-12-07T12:10:58;5.95;;;3.88;;
58196;SDS011;43999;51.660;5.616;2022-12-07T12:21:02;6.25;;;3.65;;
58196;SDS011;43999;51.660;5.616;2022-12-07T12:23:49;6.65;;;3.33;;
58196;SDS011;43999;51.660;5.616;2022-12-07T12:26:48;6.00;;;3.10;;
58196;SDS011;43999;51.660;5.616;2022-12-07T12:29:33;8.48;;;4.10;;
58196;SDS011;43999;51.660;5.616;2022-12-07T12:32:15;6.13;;;3.63;;
58196;SDS011;43999;51.660;5.616;2022-12-07T12:34:57;7.07;;;3.90;;
58196;SDS011;43999;51.660;5.616;2022-12-07T12:37:47;4.75;;;3.47;;
58196;SDS011;43999;51.660;5.616;2022-12-07T12:57:36;5.82;;;2.85;;
58196;SDS011;43999;51.660;5.616;2022-12-07T13:00:17;4.65;;;2.13;;
58196;SDS011;43999;51.660;5.616;2022-12-07T13:02:54;8.50;;;3.17;;
58196;SDS011;43999;51.660;5.616;2022-12-07T13:05:29;7.25;;;2.45;;
58196;SDS011;43999;51.660;5.616;2022-12-07T13:11:15;3.38;;;1.75;;
58196;SDS011;43999;51.660;5.616;2022-12-07T13:22:43;8.93;;;3.08;;
58196;SDS011;43999;51.660;5.616;2022-12-07T13:25:20;5.20;;;2.70;;
58196;SDS011;43999;51.660;5.616;2022-12-07T13:28:18;6.40;;;3.10;;
58196;SDS011;43999;51.660;5.616;2022-12-07T13:30:59;6.65;;;3.67;;
58196;SDS011;43999;51.660;5.616;2022-12-07T13:37:15;6.15;;;2.78;;
58196;SDS011;43999;51.660;5.616;2022-12-07T13:40:20;4.72;;;3.20;;
58196;SDS011;43999;51.660;5.616;2022-12-07T13:43:00;5.00;;;3.28;;
58196;SDS011;43999;51.660;5.616;2022-12-07T13:45:32;8.52;;;2.75;;
58196;SDS011;43999;51.660;5.616;2022-12-07T13:50:55;7.25;;;2.97;;
58196;SDS011;43999;51.660;5.616;2022-12-07T13:53:25;6.95;;;2.92;;
58196;SDS011;43999;51.660;5.616;2022-12-07T13:55:57;5.30;;;3.45;;
58196;SDS011;43999;51.660;5.616;2022-12-07T13:58:27;8.00;;;4.72;;
58196;SDS011;43999;51.660;5.616;2022-12-07T14:00:59;6.00;;;3.83;;
58196;SDS011;43999;51.660;5.616;2022-12-07T14:03:28;9.23;;;4.22;;
58196;SDS011;43999;51.660;5.616;2022-12-07T14:06:03;7.18;;;4.47;;
58196;SDS011;43999;51.660;5.616;2022-12-07T14:08:48;8.52;;;3.75;;
58196;SDS011;43999;51.660;5.616;2022-12-07T14:11:28;10.32;;;4.80;;
58196;SDS011;43999;51.660;5.616;2022-12-07T14:13:58;4.97;;;3.63;;
58196;SDS011;43999;51.660;5.616;2022-12-07T14:19:03;7.20;;;3.65;;
58196;SDS011;43999;51.660;5.616;2022-12-07T14:22:22;5.13;;;2.70;;
58196;SDS011;43999;51.660;5.616;2022-12-07T14:27:47;6.43;;;3.60;;
58196;SDS011;43999;51.660;5.616;2022-12-07T14:30:29;6.07;;;2.65;;
58196;SDS011;43999;51.660;5.616;2022-12-07T14:33:03;4.50;;;2.25;;
58196;SDS011;43999;51.660;5.616;2022-12-07T14:35:32;4.43;;;3.00;;
58196;SDS011;43999;51.660;5.616;2022-12-07T14:37:59;5.13;;;2.05;;
58196;SDS011;43999;51.660;5.616;2022-12-07T14:40:27;6.45;;;2.35;;
58196;SDS011;43999;51.660;5.616;2022-12-07T14:43:08;5.55;;;1.88;;
58196;SDS011;43999;51.660;5.616;2022-12-07T14:45:40;4.97;;;2.50;;
58196;SDS011;43999;51.660;5.616;2022-12-07T14:48:12;5.75;;;2.50;;
58196;SDS011;43999;51.660;5.616;2022-12-07T14:51:02;5.40;;;2.78;;
58196;SDS011;43999;51.660;5.616;2022-12-07T14:53:53;6.47;;;2.60;;
58196;SDS011;43999;51.660;5.616;2022-12-07T14:56:30;4.13;;;1.70;;
58196;SDS011;43999;51.660;5.616;2022-12-07T14:58:57;6.70;;;2.97;;
58196;SDS011;43999;51.660;5.616;2022-12-07T15:01:25;10.57;;;4.97;;
58196;SDS011;43999;51.660;5.616;2022-12-07T15:03:52;9.85;;;3.30;;
58196;SDS011;43999;51.660;5.616;2022-12-07T15:06:19;6.18;;;2.92;;
58196;SDS011;43999;51.660;5.616;2022-12-07T15:08:46;3.72;;;2.30;;
58196;SDS011;43999;51.660;5.616;2022-12-07T15:11:17;3.22;;;2.10;;
58196;SDS011;43999;51.660;5.616;2022-12-07T15:13:45;8.57;;;2.58;;
58196;SDS011;43999;51.660;5.616;2022-12-07T15:16:31;6.47;;;2.03;;
58196;SDS011;43999;51.660;5.616;2022-12-07T15:19:22;4.53;;;2.63;;
58196;SDS011;43999;51.660;5.616;2022-12-07T15:21:54;5.10;;;3.53;;
58196;SDS011;43999;51.660;5.616;2022-12-07T15:24:23;5.82;;;3.17;;
58196;SDS011;43999;51.660;5.616;2022-12-07T15:26:51;6.30;;;4.00;;
58196;SDS011;43999;51.660;5.616;2022-12-07T15:29:18;3.72;;;2.42;;
58196;SDS011;43999;51.660;5.616;2022-12-07T15:31:49;4.32;;;2.50;;
58196;SDS011;43999;51.660;5.616;2022-12-07T15:34:24;3.90;;;2.00;;
58196;SDS011;43999;51.660;5.616;2022-12-07T15:37:03;5.65;;;2.20;;
58196;SDS011;43999;51.660;5.616;2022-12-07T15:39:30;6.10;;;2.92;;
58196;SDS011;43999;51.660;5.616;2022-12-07T15:41:58;4.28;;;2.50;;
58196;SDS011;43999;51.660;5.616;2022-12-07T15:44:25;9.10;;;3.83;;
58196;SDS011;43999;51.660;5.616;2022-12-07T15:47:11;6.97;;;3.38;;
58196;SDS011;43999;51.660;5.616;2022-12-07T15:49:38;4.93;;;3.08;;
58196;SDS011;43999;51.660;5.616;2022-12-07T15:52:05;5.50;;;3.40;;
58196;SDS011;43999;51.660;5.616;2022-12-07T15:54:33;10.50;;;7.40;;
58196;SDS011;43999;51.660;5.616;2022-12-07T15:57:01;6.20;;;4.22;;
58196;SDS011;43999;51.660;5.616;2022-12-07T15:59:28;7.90;;;3.63;;
58196;SDS011;43999;51.660;5.616;2022-12-07T16:01:56;5.32;;;3.22;;
58196;SDS011;43999;51.660;5.616;2022-12-07T16:04:26;12.05;;;4.38;;
58196;SDS011;43999;51.660;5.616;2022-12-07T16:06:55;6.25;;;4.25;;
58196;SDS011;43999;51.660;5.616;2022-12-07T16:09:23;7.40;;;4.43;;
58196;SDS011;43999;51.660;5.616;2022-12-07T16:11:51;6.72;;;4.93;;
58196;SDS011;43999;51.660;5.616;2022-12-07T16:14:19;5.93;;;4.30;;
58196;SDS011;43999;51.660;5.616;2022-12-07T16:16:47;5.88;;;4.32;;
58196;SDS011;43999;51.660;5.616;2022-12-07T16:19:15;7.30;;;5.60;;
58196;SDS011;43999;51.660;5.616;2022-12-07T16:21:42;5.95;;;4.32;;
58196;SDS011;43999;51.660;5.616;2022-12-07T16:24:09;9.40;;;4.95;;
58196;SDS011;43999;51.660;5.616;2022-12-07T16:26:38;5.22;;;4.10;;
58196;SDS011;43999;51.660;5.616;2022-12-07T16:29:13;6.60;;;4.90;;
58196;SDS011;43999;51.660;5.616;2022-12-07T16:31:42;6.20;;;5.57;;
58196;SDS011;43999;51.660;5.616;2022-12-07T16:34:09;8.07;;;5.10;;
58196;SDS011;43999;51.660;5.616;2022-12-07T16:36:37;7.57;;;5.57;;
58196;SDS011;43999;51.660;5.616;2022-12-07T16:39:25;10.43;;;8.50;;
58196;SDS011;43999;51.660;5.616;2022-12-07T16:41:52;8.68;;;6.35;;
58196;SDS011;43999;51.660;5.616;2022-12-07T16:44:20;8.20;;;7.32;;
58196;SDS011;43999;51.660;5.616;2022-12-07T16:46:47;6.43;;;5.20;;
58196;SDS011;43999;51.660;5.616;2022-12-07T16:49:17;7.10;;;6.05;;
58196;SDS011;43999;51.660;5.616;2022-12-07T16:51:45;5.80;;;5.20;;
58196;SDS011;43999;51.660;5.616;2022-12-07T16:54:36;7.70;;;5.80;;
58196;SDS011;43999;51.660;5.616;2022-12-07T16:57:03;10.30;;;5.68;;
58196;SDS011;43999;51.660;5.616;2022-12-07T16:59:30;8.65;;;5.75;;
58196;SDS011;43999;51.660;5.616;2022-12-07T17:01:57;11.20;;;6.00;;
58196;SDS011;43999;51.660;5.616;2022-12-07T17:04:25;9.63;;;5.80;;
58196;SDS011;43999;51.660;5.616;2022-12-07T17:06:52;7.60;;;5.78;;
58196;SDS011;43999;51.660;5.616;2022-12-07T17:09:20;7.03;;;6.32;;
58196;SDS011;43999;51.660;5.616;2022-12-07T17:11:47;7.45;;;6.82;;
58196;SDS011;43999;51.660;5.616;2022-12-07T17:14:15;10.15;;;7.97;;
58196;SDS011;43999;51.660;5.616;2022-12-07T17:17:01;8.15;;;7.15;;
58196;SDS011;43999;51.660;5.616;2022-12-07T17:19:30;9.35;;;8.43;;
58196;SDS011;43999;51.660;5.616;2022-12-07T17:21:58;10.30;;;8.85;;
58196;SDS011;43999;51.660;5.616;2022-12-07T17:24:28;22.45;;;8.32;;
58196;SDS011;43999;51.660;5.616;2022-12-07T17:26:55;10.55;;;8.77;;